sensor_id;sensor_type;location;lat;lon;timestamp;P1;durP1;ratioP1;P2;durP2;ratioP2
77955;SDS011;67152;36.266;32.294;2023-04-03T00:00:32;12.00;;;3.47;;
77955;SDS011;67152;36.266;32.294;2023-04-03T00:02:59;17.85;;;4.00;;
77955;SDS011;67152;36.266;32.294;2023-04-03T00:05:26;15.20;;;4.47;;
77955;SDS011;67152;36.266;32.294;2023-04-03T00:07:53;13.13;;;3.88;;
77955;SDS011;67152;36.266;32.294;2023-04-03T00:10:20;13.40;;;3.67;;
77955;SDS011;67152;36.266;32.294;2023-04-03T00:12:47;12.70;;;3.33;;
77955;SDS011;67152;36.266;32.294;2023-04-03T00:15:17;16.38;;;3.63;;
77955;SDS011;67152;36.266;32.294;2023-04-03T00:17:44;7.73;;;2.90;;
77955;SDS011;67152;36.266;32.294;2023-04-03T00:20:11;12.60;;;2.88;;
77955;SDS011;67152;36.266;32.294;2023-04-03T00:22:38;12.10;;;2.97;;
77955;SDS011;67152;36.266;32.294;2023-04-03T00:25:05;11.68;;;3.25;;
77955;SDS011;67152;36.266;32.294;2023-04-03T00:27:38;10.38;;;3.22;;
77955;SDS011;67152;36.266;32.294;2023-04-03T00:30:06;11.38;;;3.58;;
77955;SDS011;67152;36.266;32.294;2023-04-03T00:32:34;9.43;;;3.30;;
77955;SDS011;67152;36.266;32.294;2023-04-03T00:35:01;11.03;;;4.10;;
77955;SDS011;67152;36.266;32.294;2023-04-03T00:37:28;12.98;;;3.53;;
77955;SDS011;67152;36.266;32.294;2023-04-03T00:39:55;11.30;;;4.00;;
77955;SDS011;67152;36.266;32.294;2023-04-03T00:42:22;8.25;;;3.20;;
77955;SDS011;67152;36.266;32.294;2023-04-03T00:47:19;16.38;;;3.75;;
77955;SDS011;67152;36.266;32.294;2023-04-03T00:49:46;13.02;;;3.80;;
77955;SDS011;67152;36.266;32.294;2023-04-03T00:52:14;12.40;;;3.88;;
77955;SDS011;67152;36.266;32.294;2023-04-03T00:54:42;17.80;;;3.83;;
77955;SDS011;67152;36.266;32.294;2023-04-03T00:57:12;9.32;;;3.20;;
77955;SDS011;67152;36.266;32.294;2023-04-03T00:59:40;13.13;;;3.47;;
77955;SDS011;67152;36.266;32.294;2023-04-03T01:02:10;9.82;;;3.53;;
77955;SDS011;67152;36.266;32.294;2023-04-03T01:04:38;11.40;;;3.47;;
77955;SDS011;67152;36.266;32.294;2023-04-03T01:07:08;10.90;;;3.75;;
77955;SDS011;67152;36.266;32.294;2023-04-03T01:09:43;10.77;;;3.22;;
77955;SDS011;67152;36.266;32.294;2023-04-03T01:12:15;14.75;;;3.13;;
77955;SDS011;67152;36.266;32.294;2023-04-03T01:14:43;11.90;;;3.67;;
77955;SDS011;67152;36.266;32.294;2023-04-03T01:25:56;7.22;;;2.80;;
77955;SDS011;67152;36.266;32.294;2023-04-03T01:28:30;11.02;;;3.50;;
77955;SDS011;67152;36.266;32.294;2023-04-03T01:33:35;12.18;;;3.20;;
77955;SDS011;67152;36.266;32.294;2023-04-03T01:36:02;15.00;;;3.92;;
77955;SDS011;67152;36.266;32.294;2023-04-03T01:38:29;12.45;;;3.53;;
77955;SDS011;67152;36.266;32.294;2023-04-03T01:40:56;8.95;;;3.55;;
77955;SDS011;67152;36.266;32.294;2023-04-03T01:43:23;17.13;;;3.67;;
77955;SDS011;67152;36.266;32.294;2023-04-03T01:45:50;16.33;;;3.80;;
77955;SDS011;67152;36.266;32.294;2023-04-03T01:48:18;11.35;;;3.40;;
77955;SDS011;67152;36.266;32.294;2023-04-03T01:50:45;17.83;;;3.83;;
77955;SDS011;67152;36.266;32.294;2023-04-03T01:53:12;12.75;;;3.97;;
77955;SDS011;67152;36.266;32.294;2023-04-03T01:55:39;9.45;;;3.33;;
77955;SDS011;67152;36.266;32.294;2023-04-03T01:58:06;19.93;;;3.33;;
77955;SDS011;67152;36.266;32.294;2023-04-03T02:00:33;17.13;;;3.50;;
77955;SDS011;67152;36.266;32.294;2023-04-03T02:02:59;9.57;;;2.97;;
77955;SDS011;67152;36.266;32.294;2023-04-03T02:05:26;4.45;;;1.80;;
77955;SDS011;67152;36.266;32.294;2023-04-03T02:07:53;13.07;;;3.83;;
77955;SDS011;67152;36.266;32.294;2023-04-03T02:10:20;15.93;;;3.55;;
77955;SDS011;67152;36.266;32.294;2023-04-03T02:12:47;17.85;;;4.45;;
77955;SDS011;67152;36.266;32.294;2023-04-03T02:15:14;15.30;;;3.80;;
77955;SDS011;67152;36.266;32.294;2023-04-03T02:17:41;11.00;;;4.05;;
77955;SDS011;67152;36.266;32.294;2023-04-03T02:20:07;13.88;;;5.00;;
77955;SDS011;67152;36.266;32.294;2023-04-03T02:22:35;9.40;;;4.63;;
77955;SDS011;67152;36.266;32.294;2023-04-03T02:25:02;14.23;;;4.30;;
77955;SDS011;67152;36.266;32.294;2023-04-03T02:27:29;9.93;;;4.05;;
77955;SDS011;67152;36.266;32.294;2023-04-03T02:29:56;13.88;;;4.68;;
77955;SDS011;67152;36.266;32.294;2023-04-03T02:32:22;14.05;;;4.78;;
77955;SDS011;67152;36.266;32.294;2023-04-03T02:34:49;11.27;;;3.43;;
77955;SDS011;67152;36.266;32.294;2023-04-03T02:37:16;9.23;;;3.50;;
77955;SDS011;67152;36.266;32.294;2023-04-03T02:39:43;8.30;;;3.42;;
77955;SDS011;67152;36.266;32.294;2023-04-03T02:42:09;8.43;;;2.45;;
77955;SDS011;67152;36.266;32.294;2023-04-03T02:44:36;7.55;;;2.63;;
77955;SDS011;67152;36.266;32.294;2023-04-03T02:47:03;12.98;;;2.85;;
77955;SDS011;67152;36.266;32.294;2023-04-03T02:49:30;14.00;;;3.05;;
77955;SDS011;67152;36.266;32.294;2023-04-03T02:51:57;9.00;;;2.50;;
77955;SDS011;67152;36.266;32.294;2023-04-03T02:54:23;11.45;;;3.70;;
77955;SDS011;67152;36.266;32.294;2023-04-03T02:56:53;13.30;;;3.40;;
77955;SDS011;67152;36.266;32.294;2023-04-03T02:59:20;11.77;;;2.97;;
77955;SDS011;67152;36.266;32.294;2023-04-03T03:01:47;10.52;;;2.92;;
77955;SDS011;67152;36.266;32.294;2023-04-03T03:04:14;14.73;;;2.93;;
77955;SDS011;67152;36.266;32.294;2023-04-03T03:06:41;8.50;;;3.38;;
77955;SDS011;67152;36.266;32.294;2023-04-03T03:09:08;14.75;;;2.75;;
77955;SDS011;67152;36.266;32.294;2023-04-03T03:11:35;11.68;;;3.00;;
77955;SDS011;67152;36.266;32.294;2023-04-03T03:14:01;12.13;;;3.60;;
77955;SDS011;67152;36.266;32.294;2023-04-03T03:18:56;11.73;;;2.50;;
77955;SDS011;67152;36.266;32.294;2023-04-03T03:21:23;9.80;;;2.60;;
77955;SDS011;67152;36.266;32.294;2023-04-03T03:23:49;14.23;;;3.60;;
77955;SDS011;67152;36.266;32.294;2023-04-03T03:26:16;9.95;;;2.03;;
77955;SDS011;67152;36.266;32.294;2023-04-03T03:28:43;6.30;;;2.13;;
77955;SDS011;67152;36.266;32.294;2023-04-03T03:31:10;10.73;;;2.55;;
77955;SDS011;67152;36.266;32.294;2023-04-03T03:33:38;12.68;;;3.03;;
77955;SDS011;67152;36.266;32.294;2023-04-03T03:36:05;15.60;;;3.23;;
77955;SDS011;67152;36.266;32.294;2023-04-03T03:38:32;8.27;;;3.05;;
77955;SDS011;67152;36.266;32.294;2023-04-03T03:40:58;12.70;;;3.08;;
77955;SDS011;67152;36.266;32.294;2023-04-03T03:43:25;12.55;;;3.00;;
77955;SDS011;67152;36.266;32.294;2023-04-03T03:45:52;11.68;;;3.45;;
77955;SDS011;67152;36.266;32.294;2023-04-03T03:48:20;11.63;;;2.42;;
77955;SDS011;67152;36.266;32.294;2023-04-03T03:50:47;7.20;;;2.58;;
77955;SDS011;67152;36.266;32.294;2023-04-03T03:53:14;13.57;;;3.30;;
77955;SDS011;67152;36.266;32.294;2023-04-03T03:55:41;11.43;;;3.25;;
77955;SDS011;67152;36.266;32.294;2023-04-03T03:58:08;19.05;;;3.67;;
77955;SDS011;67152;36.266;32.294;2023-04-03T04:00:35;10.27;;;3.00;;
77955;SDS011;67152;36.266;32.294;2023-04-03T04:03:02;11.57;;;2.67;;
77955;SDS011;67152;36.266;32.294;2023-04-03T04:05:29;12.30;;;2.93;;
77955;SDS011;67152;36.266;32.294;2023-04-03T04:07:56;12.27;;;3.25;;
77955;SDS011;67152;36.266;32.294;2023-04-03T04:10:23;10.68;;;2.45;;
77955;SDS011;67152;36.266;32.294;2023-04-03T04:12:50;8.23;;;3.28;;
77955;SDS011;67152;36.266;32.294;2023-04-03T04:15:17;7.50;;;2.80;;
77955;SDS011;67152;36.266;32.294;2023-04-03T04:17:44;17.48;;;4.07;;
77955;SDS011;67152;36.266;32.294;2023-04-03T04:20:11;17.87;;;3.03;;
77955;SDS011;67152;36.266;32.294;2023-04-03T04:22:38;14.20;;;2.50;;
77955;SDS011;67152;36.266;32.294;2023-04-03T04:25:05;13.07;;;2.47;;
77955;SDS011;67152;36.266;32.294;2023-04-03T04:27:32;5.70;;;2.50;;
77955;SDS011;67152;36.266;32.294;2023-04-03T04:29:58;6.17;;;2.13;;
77955;SDS011;67152;36.266;32.294;2023-04-03T04:32:25;7.63;;;2.70;;
77955;SDS011;67152;36.266;32.294;2023-04-03T04:34:52;14.20;;;3.47;;
77955;SDS011;67152;36.266;32.294;2023-04-03T04:37:19;16.05;;;3.08;;
77955;SDS011;67152;36.266;32.294;2023-04-03T04:39:46;7.32;;;3.38;;
77955;SDS011;67152;36.266;32.294;2023-04-03T04:42:13;9.30;;;2.72;;
77955;SDS011;67152;36.266;32.294;2023-04-03T04:44:40;8.95;;;3.45;;
77955;SDS011;67152;36.266;32.294;2023-04-03T04:47:09;11.18;;;3.38;;
77955;SDS011;67152;36.266;32.294;2023-04-03T04:49:36;18.20;;;3.70;;
77955;SDS011;67152;36.266;32.294;2023-04-03T04:52:03;12.98;;;5.38;;
77955;SDS011;67152;36.266;32.294;2023-04-03T04:54:31;9.48;;;3.80;;
77955;SDS011;67152;36.266;32.294;2023-04-03T04:56:57;8.40;;;2.63;;
77955;SDS011;67152;36.266;32.294;2023-04-03T04:59:24;15.48;;;3.10;;
77955;SDS011;67152;36.266;32.294;2023-04-03T05:01:52;15.02;;;4.00;;
77955;SDS011;67152;36.266;32.294;2023-04-03T05:04:19;18.63;;;4.20;;
77955;SDS011;67152;36.266;32.294;2023-04-03T05:06:46;16.15;;;4.05;;
77955;SDS011;67152;36.266;32.294;2023-04-03T05:09:13;17.13;;;4.75;;
77955;SDS011;67152;36.266;32.294;2023-04-03T05:11:41;16.20;;;4.78;;
77955;SDS011;67152;36.266;32.294;2023-04-03T05:14:09;12.35;;;3.58;;
77955;SDS011;67152;36.266;32.294;2023-04-03T05:16:35;28.23;;;4.00;;
77955;SDS011;67152;36.266;32.294;2023-04-03T05:19:02;15.80;;;3.15;;
77955;SDS011;67152;36.266;32.294;2023-04-03T05:21:29;13.30;;;3.50;;
77955;SDS011;67152;36.266;32.294;2023-04-03T05:23:58;12.27;;;3.35;;
77955;SDS011;67152;36.266;32.294;2023-04-03T05:26:29;15.75;;;3.58;;
77955;SDS011;67152;36.266;32.294;2023-04-03T05:28:58;20.50;;;3.03;;
77955;SDS011;67152;36.266;32.294;2023-04-03T05:31:26;18.92;;;3.40;;
77955;SDS011;67152;36.266;32.294;2023-04-03T05:33:55;24.75;;;3.17;;
77955;SDS011;67152;36.266;32.294;2023-04-03T05:36:22;25.25;;;3.67;;
77955;SDS011;67152;36.266;32.294;2023-04-03T05:38:48;12.85;;;3.75;;
77955;SDS011;67152;36.266;32.294;2023-04-03T05:41:15;13.05;;;3.42;;
77955;SDS011;67152;36.266;32.294;2023-04-03T05:43:42;15.40;;;4.72;;
77955;SDS011;67152;36.266;32.294;2023-04-03T05:46:12;24.08;;;4.10;;
77955;SDS011;67152;36.266;32.294;2023-04-03T05:48:44;20.30;;;5.25;;
77955;SDS011;67152;36.266;32.294;2023-04-03T05:51:15;16.90;;;3.95;;
77955;SDS011;67152;36.266;32.294;2023-04-03T05:54:00;19.90;;;3.90;;
77955;SDS011;67152;36.266;32.294;2023-04-03T05:56:32;15.73;;;4.00;;
77955;SDS011;67152;36.266;32.294;2023-04-03T05:58:59;16.90;;;3.97;;
77955;SDS011;67152;36.266;32.294;2023-04-03T06:01:26;22.65;;;4.25;;
77955;SDS011;67152;36.266;32.294;2023-04-03T06:03:53;17.33;;;3.88;;
77955;SDS011;67152;36.266;32.294;2023-04-03T06:06:19;15.25;;;3.83;;
77955;SDS011;67152;36.266;32.294;2023-04-03T06:08:47;12.82;;;4.07;;
77955;SDS011;67152;36.266;32.294;2023-04-03T06:11:14;19.38;;;4.55;;
77955;SDS011;67152;36.266;32.294;2023-04-03T06:16:58;14.65;;;3.50;;
77955;SDS011;67152;36.266;32.294;2023-04-03T06:19:25;11.48;;;4.07;;
77955;SDS011;67152;36.266;32.294;2023-04-03T06:21:52;18.58;;;4.93;;
77955;SDS011;67152;36.266;32.294;2023-04-03T06:24:19;15.93;;;4.40;;
77955;SDS011;67152;36.266;32.294;2023-04-03T06:26:47;14.20;;;4.75;;
77955;SDS011;67152;36.266;32.294;2023-04-03T06:29:14;20.77;;;5.03;;
77955;SDS011;67152;36.266;32.294;2023-04-03T06:34:07;21.17;;;5.47;;
77955;SDS011;67152;36.266;32.294;2023-04-03T06:39:01;21.48;;;5.45;;
77955;SDS011;67152;36.266;32.294;2023-04-03T06:41:28;19.10;;;5.55;;
77955;SDS011;67152;36.266;32.294;2023-04-03T06:43:55;24.50;;;5.55;;
77955;SDS011;67152;36.266;32.294;2023-04-03T06:46:24;19.60;;;5.38;;
77955;SDS011;67152;36.266;32.294;2023-04-03T06:48:52;14.43;;;4.50;;
77955;SDS011;67152;36.266;32.294;2023-04-03T06:51:26;24.75;;;4.60;;
77955;SDS011;67152;36.266;32.294;2023-04-03T06:53:55;17.23;;;4.65;;
77955;SDS011;67152;36.266;32.294;2023-04-03T06:56:23;16.95;;;3.75;;
77955;SDS011;67152;36.266;32.294;2023-04-03T06:58:51;19.27;;;3.47;;
77955;SDS011;67152;36.266;32.294;2023-04-03T07:01:20;18.02;;;3.95;;
77955;SDS011;67152;36.266;32.294;2023-04-03T07:06:14;15.25;;;3.10;;
77955;SDS011;67152;36.266;32.294;2023-04-03T07:08:42;18.13;;;2.92;;
77955;SDS011;67152;36.266;32.294;2023-04-03T07:11:09;13.68;;;3.05;;
77955;SDS011;67152;36.266;32.294;2023-04-03T07:13:37;14.98;;;2.70;;
77955;SDS011;67152;36.266;32.294;2023-04-03T07:16:05;17.38;;;3.08;;
77955;SDS011;67152;36.266;32.294;2023-04-03T07:18:32;12.68;;;3.03;;
77955;SDS011;67152;36.266;32.294;2023-04-03T07:20:59;15.30;;;3.60;;
77955;SDS011;67152;36.266;32.294;2023-04-03T07:23:26;11.52;;;2.65;;
77955;SDS011;67152;36.266;32.294;2023-04-03T07:25:53;15.20;;;3.05;;
77955;SDS011;67152;36.266;32.294;2023-04-03T07:30:49;17.27;;;3.20;;
77955;SDS011;67152;36.266;32.294;2023-04-03T07:33:21;13.80;;;3.42;;
77955;SDS011;67152;36.266;32.294;2023-04-03T07:35:49;19.77;;;3.30;;
77955;SDS011;67152;36.266;32.294;2023-04-03T07:38:16;22.27;;;3.55;;
77955;SDS011;67152;36.266;32.294;2023-04-03T07:40:47;18.60;;;3.03;;
77955;SDS011;67152;36.266;32.294;2023-04-03T07:43:17;16.42;;;3.28;;
77955;SDS011;67152;36.266;32.294;2023-04-03T07:45:46;11.13;;;2.78;;
77955;SDS011;67152;36.266;32.294;2023-04-03T07:48:20;10.60;;;2.60;;
77955;SDS011;67152;36.266;32.294;2023-04-03T07:51:03;11.73;;;3.13;;
77955;SDS011;67152;36.266;32.294;2023-04-03T07:53:31;13.07;;;2.78;;
77955;SDS011;67152;36.266;32.294;2023-04-03T07:55:58;19.95;;;3.45;;
77955;SDS011;67152;36.266;32.294;2023-04-03T07:58:25;18.42;;;3.03;;
77955;SDS011;67152;36.266;32.294;2023-04-03T08:00:54;11.52;;;2.65;;
77955;SDS011;67152;36.266;32.294;2023-04-03T08:03:21;18.08;;;3.40;;
77955;SDS011;67152;36.266;32.294;2023-04-03T08:05:48;14.43;;;2.53;;
77955;SDS011;67152;36.266;32.294;2023-04-03T08:08:17;11.75;;;2.72;;
77955;SDS011;67152;36.266;32.294;2023-04-03T08:10:52;14.60;;;3.15;;
77955;SDS011;67152;36.266;32.294;2023-04-03T08:13:20;12.82;;;2.67;;
77955;SDS011;67152;36.266;32.294;2023-04-03T08:15:47;11.68;;;2.78;;
77955;SDS011;67152;36.266;32.294;2023-04-03T08:18:14;13.13;;;3.03;;
77955;SDS011;67152;36.266;32.294;2023-04-03T08:20:42;11.70;;;3.15;;
77955;SDS011;67152;36.266;32.294;2023-04-03T08:23:09;16.52;;;2.85;;
77955;SDS011;67152;36.266;32.294;2023-04-03T08:25:39;11.48;;;3.00;;
77955;SDS011;67152;36.266;32.294;2023-04-03T08:28:08;17.80;;;3.00;;
77955;SDS011;67152;36.266;32.294;2023-04-03T08:30:38;15.80;;;3.30;;
77955;SDS011;67152;36.266;32.294;2023-04-03T08:33:06;13.73;;;2.67;;
77955;SDS011;67152;36.266;32.294;2023-04-03T08:35:37;12.98;;;2.63;;
77955;SDS011;67152;36.266;32.294;2023-04-03T08:38:07;10.73;;;2.53;;
77955;SDS011;67152;36.266;32.294;2023-04-03T08:40:35;15.43;;;3.15;;
77955;SDS011;67152;36.266;32.294;2023-04-03T08:50:33;15.00;;;3.17;;
77955;SDS011;67152;36.266;32.294;2023-04-03T08:53:04;25.23;;;4.30;;
77955;SDS011;67152;36.266;32.294;2023-04-03T08:55:33;15.07;;;2.88;;
77955;SDS011;67152;36.266;32.294;2023-04-03T08:58:05;14.07;;;2.92;;
77955;SDS011;67152;36.266;32.294;2023-04-03T09:00:54;14.57;;;2.83;;
77955;SDS011;67152;36.266;32.294;2023-04-03T09:03:22;11.57;;;3.50;;
77955;SDS011;67152;36.266;32.294;2023-04-03T09:08:24;7.97;;;2.45;;
77955;SDS011;67152;36.266;32.294;2023-04-03T09:11:15;10.88;;;2.90;;
77955;SDS011;67152;36.266;32.294;2023-04-03T09:13:50;14.38;;;3.10;;
77955;SDS011;67152;36.266;32.294;2023-04-03T09:16:30;19.90;;;3.60;;
77955;SDS011;67152;36.266;32.294;2023-04-03T09:21:46;24.42;;;3.15;;
77955;SDS011;67152;36.266;32.294;2023-04-03T09:24:14;17.92;;;3.35;;
77955;SDS011;67152;36.266;32.294;2023-04-03T09:26:46;17.75;;;3.22;;
77955;SDS011;67152;36.266;32.294;2023-04-03T09:29:18;13.68;;;3.05;;
77955;SDS011;67152;36.266;32.294;2023-04-03T09:31:52;15.40;;;3.20;;
77955;SDS011;67152;36.266;32.294;2023-04-03T09:37:00;16.45;;;2.80;;
77955;SDS011;67152;36.266;32.294;2023-04-03T09:39:53;11.90;;;2.70;;
77955;SDS011;67152;36.266;32.294;2023-04-03T09:42:21;14.35;;;3.20;;
77955;SDS011;67152;36.266;32.294;2023-04-03T09:44:59;14.98;;;2.80;;
77955;SDS011;67152;36.266;32.294;2023-04-03T09:47:28;16.33;;;2.83;;
77955;SDS011;67152;36.266;32.294;2023-04-03T09:52:40;19.17;;;3.10;;
77955;SDS011;67152;36.266;32.294;2023-04-03T09:55:21;12.45;;;3.10;;
77955;SDS011;67152;36.266;32.294;2023-04-03T09:58:02;15.95;;;2.90;;
77955;SDS011;67152;36.266;32.294;2023-04-03T10:00:37;21.27;;;2.97;;
77955;SDS011;67152;36.266;32.294;2023-04-03T10:03:09;10.50;;;2.72;;
77955;SDS011;67152;36.266;32.294;2023-04-03T10:05:56;13.43;;;2.95;;
77955;SDS011;67152;36.266;32.294;2023-04-03T10:08:27;12.80;;;3.15;;
77955;SDS011;67152;36.266;32.294;2023-04-03T10:11:07;14.40;;;2.67;;
77955;SDS011;67152;36.266;32.294;2023-04-03T10:13:55;13.20;;;2.80;;
77955;SDS011;67152;36.266;32.294;2023-04-03T10:19:30;16.25;;;2.70;;
77955;SDS011;67152;36.266;32.294;2023-04-03T10:22:13;18.80;;;3.28;;
77955;SDS011;67152;36.266;32.294;2023-04-03T10:24:55;15.07;;;2.97;;
77955;SDS011;67152;36.266;32.294;2023-04-03T10:30:33;16.88;;;3.10;;
77955;SDS011;67152;36.266;32.294;2023-04-03T10:33:20;15.82;;;3.22;;
77955;SDS011;67152;36.266;32.294;2023-04-03T10:36:12;12.07;;;2.95;;
77955;SDS011;67152;36.266;32.294;2023-04-03T10:55:34;14.25;;;2.95;;
77955;SDS011;67152;36.266;32.294;2023-04-03T10:58:06;17.40;;;3.42;;
77955;SDS011;67152;36.266;32.294;2023-04-03T11:00:43;17.85;;;3.15;;
77955;SDS011;67152;36.266;32.294;2023-04-03T11:03:15;12.73;;;2.85;;
77955;SDS011;67152;36.266;32.294;2023-04-03T11:06:03;18.30;;;3.78;;
77955;SDS011;67152;36.266;32.294;2023-04-03T11:11:25;17.75;;;2.88;;
77955;SDS011;67152;36.266;32.294;2023-04-03T11:14:00;17.45;;;3.70;;
77955;SDS011;67152;36.266;32.294;2023-04-03T11:16:48;17.10;;;3.30;;
77955;SDS011;67152;36.266;32.294;2023-04-03T11:19:45;17.17;;;2.85;;
77955;SDS011;67152;36.266;32.294;2023-04-03T11:24:56;24.80;;;3.40;;
77955;SDS011;67152;36.266;32.294;2023-04-03T11:27:45;22.38;;;3.85;;
77955;SDS011;67152;36.266;32.294;2023-04-03T11:30:19;15.75;;;3.53;;
77955;SDS011;67152;36.266;32.294;2023-04-03T11:35:45;18.42;;;3.08;;
77955;SDS011;67152;36.266;32.294;2023-04-03T11:38:21;22.27;;;3.53;;
77955;SDS011;67152;36.266;32.294;2023-04-03T11:40:55;17.50;;;3.42;;
77955;SDS011;67152;36.266;32.294;2023-04-03T11:43:25;21.05;;;3.75;;
77955;SDS011;67152;36.266;32.294;2023-04-03T11:50:59;16.27;;;3.15;;
77955;SDS011;67152;36.266;32.294;2023-04-03T11:53:30;18.23;;;3.72;;
77955;SDS011;67152;36.266;32.294;2023-04-03T12:01:48;16.80;;;3.47;;
77955;SDS011;67152;36.266;32.294;2023-04-03T12:04:16;18.85;;;3.67;;
77955;SDS011;67152;36.266;32.294;2023-04-03T12:29:47;23.63;;;4.53;;
77955;SDS011;67152;36.266;32.294;2023-04-03T12:46:38;25.02;;;4.38;;
77955;SDS011;67152;36.266;32.294;2023-04-03T12:51:45;18.73;;;4.25;;
77955;SDS011;67152;36.266;32.294;2023-04-03T12:57:18;16.17;;;3.57;;
77955;SDS011;67152;36.266;32.294;2023-04-03T12:59:47;19.13;;;4.03;;
77955;SDS011;67152;36.266;32.294;2023-04-03T13:04:58;21.98;;;5.20;;
77955;SDS011;67152;36.266;32.294;2023-04-03T13:07:32;20.40;;;4.47;;
77955;SDS011;67152;36.266;32.294;2023-04-03T13:10:13;23.25;;;4.20;;
77955;SDS011;67152;36.266;32.294;2023-04-03T13:12:49;20.23;;;4.38;;
77955;SDS011;67152;36.266;32.294;2023-04-03T13:15:19;17.55;;;4.03;;
77955;SDS011;67152;36.266;32.294;2023-04-03T13:17:48;23.45;;;4.60;;
77955;SDS011;67152;36.266;32.294;2023-04-03T13:20:20;15.80;;;4.00;;
77955;SDS011;67152;36.266;32.294;2023-04-03T13:23:10;11.57;;;3.80;;
77955;SDS011;67152;36.266;32.294;2023-04-03T13:25:40;24.33;;;4.35;;
77955;SDS011;67152;36.266;32.294;2023-04-03T13:28:09;15.75;;;4.03;;
77955;SDS011;67152;36.266;32.294;2023-04-03T13:30:40;20.42;;;4.10;;
77955;SDS011;67152;36.266;32.294;2023-04-03T13:33:24;19.63;;;4.80;;
77955;SDS011;67152;36.266;32.294;2023-04-03T13:38:47;19.42;;;4.22;;
77955;SDS011;67152;36.266;32.294;2023-04-03T13:41:34;18.92;;;4.82;;
77955;SDS011;67152;36.266;32.294;2023-04-03T13:44:16;22.45;;;4.75;;
77955;SDS011;67152;36.266;32.294;2023-04-03T13:46:50;19.80;;;3.95;;
77955;SDS011;67152;36.266;32.294;2023-04-03T13:51:53;15.98;;;4.38;;
77955;SDS011;67152;36.266;32.294;2023-04-03T13:56:54;161.13;;;9.27;;
77955;SDS011;67152;36.266;32.294;2023-04-03T13:59:24;17.25;;;4.05;;
77955;SDS011;67152;36.266;32.294;2023-04-03T14:04:53;18.25;;;3.17;;
77955;SDS011;67152;36.266;32.294;2023-04-03T14:07:24;21.05;;;4.05;;
77955;SDS011;67152;36.266;32.294;2023-04-03T14:09:52;14.73;;;3.05;;
77955;SDS011;67152;36.266;32.294;2023-04-03T14:12:24;17.85;;;3.95;;
77955;SDS011;67152;36.266;32.294;2023-04-03T14:14:52;24.58;;;3.97;;
77955;SDS011;67152;36.266;32.294;2023-04-03T14:17:21;16.60;;;3.95;;
77955;SDS011;67152;36.266;32.294;2023-04-03T14:19:49;18.52;;;3.85;;
77955;SDS011;67152;36.266;32.294;2023-04-03T14:22:19;18.83;;;4.28;;
77955;SDS011;67152;36.266;32.294;2023-04-03T14:24:50;19.73;;;3.00;;
77955;SDS011;67152;36.266;32.294;2023-04-03T14:27:22;14.27;;;3.25;;
77955;SDS011;67152;36.266;32.294;2023-04-03T14:29:52;18.23;;;3.92;;
77955;SDS011;67152;36.266;32.294;2023-04-03T14:32:20;17.15;;;3.25;;
77955;SDS011;67152;36.266;32.294;2023-04-03T14:34:49;23.25;;;4.07;;
77955;SDS011;67152;36.266;32.294;2023-04-03T14:37:18;27.15;;;3.33;;
77955;SDS011;67152;36.266;32.294;2023-04-03T14:39:51;19.65;;;3.75;;
77955;SDS011;67152;36.266;32.294;2023-04-03T14:42:23;22.55;;;3.83;;
77955;SDS011;67152;36.266;32.294;2023-04-03T14:44:52;18.67;;;3.55;;
77955;SDS011;67152;36.266;32.294;2023-04-03T14:47:20;18.73;;;3.70;;
77955;SDS011;67152;36.266;32.294;2023-04-03T14:49:49;22.42;;;3.15;;
77955;SDS011;67152;36.266;32.294;2023-04-03T14:52:18;20.08;;;3.58;;
77955;SDS011;67152;36.266;32.294;2023-04-03T14:54:53;19.90;;;3.40;;
77955;SDS011;67152;36.266;32.294;2023-04-03T14:57:21;22.45;;;3.90;;
77955;SDS011;67152;36.266;32.294;2023-04-03T14:59:51;17.88;;;3.75;;
77955;SDS011;67152;36.266;32.294;2023-04-03T15:04:48;23.98;;;2.97;;
77955;SDS011;67152;36.266;32.294;2023-04-03T15:07:15;19.48;;;3.78;;
77955;SDS011;67152;36.266;32.294;2023-04-03T15:09:42;29.15;;;3.80;;
77955;SDS011;67152;36.266;32.294;2023-04-03T15:12:09;24.40;;;4.05;;
77955;SDS011;67152;36.266;32.294;2023-04-03T15:14:36;26.42;;;4.40;;
77955;SDS011;67152;36.266;32.294;2023-04-03T15:17:08;20.25;;;3.35;;
77955;SDS011;67152;36.266;32.294;2023-04-03T15:19:40;16.77;;;4.22;;
77955;SDS011;67152;36.266;32.294;2023-04-03T15:22:09;16.13;;;3.35;;
77955;SDS011;67152;36.266;32.294;2023-04-03T15:24:41;16.92;;;3.72;;
77955;SDS011;67152;36.266;32.294;2023-04-03T15:27:08;24.40;;;3.72;;
77955;SDS011;67152;36.266;32.294;2023-04-03T15:29:36;13.70;;;3.28;;
77955;SDS011;67152;36.266;32.294;2023-04-03T15:36:28;22.15;;;6.50;;
77955;SDS011;67152;36.266;32.294;2023-04-03T15:38:55;29.38;;;13.82;;
77955;SDS011;67152;36.266;32.294;2023-04-03T15:41:22;20.42;;;4.75;;
77955;SDS011;67152;36.266;32.294;2023-04-03T15:43:51;23.75;;;3.67;;
77955;SDS011;67152;36.266;32.294;2023-04-03T15:46:18;14.48;;;3.72;;
77955;SDS011;67152;36.266;32.294;2023-04-03T15:48:45;21.45;;;3.92;;
77955;SDS011;67152;36.266;32.294;2023-04-03T15:51:12;30.47;;;4.20;;
77955;SDS011;67152;36.266;32.294;2023-04-03T15:53:38;28.20;;;4.15;;
77955;SDS011;67152;36.266;32.294;2023-04-03T15:56:05;18.83;;;3.33;;
77955;SDS011;67152;36.266;32.294;2023-04-03T15:58:34;20.60;;;3.38;;
77955;SDS011;67152;36.266;32.294;2023-04-03T16:01:01;26.73;;;3.85;;
77955;SDS011;67152;36.266;32.294;2023-04-03T16:03:28;38.75;;;4.35;;
77955;SDS011;67152;36.266;32.294;2023-04-03T16:05:56;23.75;;;4.38;;
77955;SDS011;67152;36.266;32.294;2023-04-03T16:08:23;36.33;;;4.38;;
77955;SDS011;67152;36.266;32.294;2023-04-03T16:10:51;24.23;;;4.82;;
77955;SDS011;67152;36.266;32.294;2023-04-03T16:13:37;19.30;;;4.47;;
77955;SDS011;67152;36.266;32.294;2023-04-03T16:16:04;21.10;;;3.97;;
77955;SDS011;67152;36.266;32.294;2023-04-03T16:18:31;26.90;;;5.55;;
77955;SDS011;67152;36.266;32.294;2023-04-03T16:21:01;22.15;;;5.35;;
77955;SDS011;67152;36.266;32.294;2023-04-03T16:23:28;22.92;;;5.63;;
77955;SDS011;67152;36.266;32.294;2023-04-03T16:25:54;20.73;;;5.57;;
77955;SDS011;67152;36.266;32.294;2023-04-03T16:28:21;20.77;;;5.18;;
77955;SDS011;67152;36.266;32.294;2023-04-03T16:30:48;37.65;;;6.45;;
77955;SDS011;67152;36.266;32.294;2023-04-03T16:33:15;44.00;;;12.82;;
77955;SDS011;67152;36.266;32.294;2023-04-03T16:35:43;40.50;;;15.10;;
77955;SDS011;67152;36.266;32.294;2023-04-03T16:38:10;22.20;;;7.65;;
77955;SDS011;67152;36.266;32.294;2023-04-03T16:40:37;24.00;;;8.15;;
77955;SDS011;67152;36.266;32.294;2023-04-03T16:43:04;23.45;;;8.45;;
77955;SDS011;67152;36.266;32.294;2023-04-03T16:45:32;30.25;;;9.35;;
77955;SDS011;67152;36.266;32.294;2023-04-03T16:48:00;28.15;;;10.15;;
77955;SDS011;67152;36.266;32.294;2023-04-03T16:52:54;25.50;;;7.53;;
77955;SDS011;67152;36.266;32.294;2023-04-03T16:57:49;20.98;;;6.50;;
77955;SDS011;67152;36.266;32.294;2023-04-03T17:00:16;25.30;;;9.30;;
77955;SDS011;67152;36.266;32.294;2023-04-03T17:02:47;32.83;;;10.27;;
77955;SDS011;67152;36.266;32.294;2023-04-03T17:05:15;39.22;;;10.85;;
77955;SDS011;67152;36.266;32.294;2023-04-03T17:10:10;41.35;;;13.45;;
77955;SDS011;67152;36.266;32.294;2023-04-03T17:12:38;39.22;;;15.15;;
77955;SDS011;67152;36.266;32.294;2023-04-03T17:19:15;50.53;;;18.30;;
77955;SDS011;67152;36.266;32.294;2023-04-03T17:21:43;53.08;;;19.70;;